Hlavní strana
METAR-TAF:

METAR-TAF

Letiště :

Bodø, Norsko

zeměpisná šířka: 67-16N, zeměpisná délka: 014-22E, výška: 1 m

Aktuální stav počasí

Zpráva byla vytvořena před 11 minutami, v 10:20 UTC
Východní vítr 16 kt
Teplota -7°C
Vlhkost vzduchu 62%
Tlak 1007 hPa
Viditelnost 10 km a více
Žádná oblačnost pod 1500 m, nevyskytují se cumulonimby.

METAR: ENBO 221020Z 08016KT CAVOK M07/M13 Q1007 NOSIG

Čas: 11:31 (10:31 UTC)

Předpověď počasí

Předpověď platná od 22 v 06 UTC do 23 v 06 UTC
Východní vítr 18 kt
Viditelnost 10 km a více
Žádná oblačnost pod 1500 m, nevyskytují se cumulonimby.

TAF: ENBO 2206/2306 08018KT CAVOK

Stav a předpovědi počasí z více než 4 000 letišť (zprávy METAR a TAF).

Červené a žluté tečky na mapě představují dostupné meteorologické stanice.

Když kurzor umístíte na tečku, zobrazí se název stanice.

Pak kliknutím zobrazíte stav a předpověď počasí.

Chcete-li změnit mapu, kliknutím na zelené tlačítko se znaménkem +mapu přiblížíte, kliknutím na zelené tlačítko se znaménkem – mapu oddálíte a kliknutím na zelené šipky přejdete na sousední mapy.


METAR-TAF: